KDNN/DNN METAR and TAF weather

Enter ICAO airport designator
Station Type Date Time Source
KDNN METAR 2023/01/29 19:15 UTC NOAA

KDNN 291915Z AUTO 00000KT 6SM -RA BR FEW030 SCT038 OVC050 10/08 A3019 RMK AO2 RAB1903 P0000 T00960076


Station Type Date Time Source
KDNN Decoded METAR 2023/01/29 19:15 UTC NOAA

Dalton, Dalton Municipal Airport, GA, United States (KDNN) 34-43-18N 084-52-09W
Jan 29, 2023 - 02:15 PM EST / 2023.01.29 1915 UTC
Wind: Calm:0
Visibility: 6 mile(s):0
Sky conditions: overcast
Weather: light rain; mist
Precipitation last hour: A trace
Temperature: 49.3 F (9.6 C)
Dew Point: 45.7 F (7.6 C)
Relative Humidity: 87%
Pressure (altimeter): 30.19 in. Hg (1022 hPa)
ob: KDNN 291915Z AUTO 00000KT 6SM -RA BR FEW030 SCT038 OVC050 10/08 A3019 RMK AO2 RAB1903 P0000 T00960076
cycle: 19

Station Type Date Time Source
KDNN TAF UTC NOAA

Error!

Example: see airport list